Parry Sound, Canada
Current Conditions -  °F | °C
As of 7:00 AM on Friday 19 Dec 2014 (Local Time) from CYQA Reporting Station
Overcast Overcast  
Wind Chill:   Ceiling: 7500
Heat Index: 14°   Visibility: 9mi
Dew Point: 10°   Wind: 7mph
Humidity: 86%   Direction: 310°NW
Pressure: 30.13"   Gusts: NA
Location:  45.34°N, 80.04°W
Report Text: CYQA 191200Z AUTO 31006KT 9SM BKN075 OVC091 M10/M12 A3013 RMK SLP221
Loading
Personal Weather Stations






























Interactive Weather Map New forecast layout! Learn more

10-Day Weather Forecast

Advertisements
Track Severe Weather on mobile